Weather at Ängelholm-Helsingborg Airport

Public forecast

Using degrees Celsius for public forecast. Weather courtesy of forecast.io.

Current aviation weather report (METAR) for Ängelholm-Helsingborg Airport

2024/05/18 22:50 (retrieved 11 minutes ago)

ESTA 182250Z AUTO 33003KT 9999 R14///// R32/P1500N NCD 08/04 Q1014

Closest aviation forecast (TAF) to Ängelholm-Helsingborg Airport

Closest forecast is Copenhagen Kastrup Airport, 41.2 nm (76.3 km) S.

2024/05/18 18:31 (retrieved 5 hours ago)

TAF EKCH 181702Z 1818/1918 07010KT CAVOK PROB40 1906/1910 SCT050CB BECMG 1909/1911 19008KT TEMPO 1910/1917 SCT050CB